Time;durP1;ratioP1;P1;durP2;ratioP2;P2;SDS_P1;SDS_P2;PMS_P1;PMS_P2;Temp;Humidity;BMP_temperature;BMP_pressure;BME280_temperature;BME280_humidity;BME280_pressure;Samples;Min_cycle;Max_cycle;Signal;HPM_P1;HPM_P2
2023/01/28 00:02:25;;;;;;;4.03;3.72;;;;;;;;;;5077636;28;20317;-62
2023/01/28 00:04:53;;;;;;;3.90;3.60;;;;;;;;;;5071937;28;20228;-61
2023/01/28 00:07:22;;;;;;;3.90;3.58;;;;;;;;;;5078931;28;20208;-61
2023/01/28 00:09:50;;;;;;;3.75;3.45;;;;;;;;;;5079486;28;20208;-62
2023/01/28 00:12:18;;;;;;;3.97;3.67;;;;;;;;;;5079365;28;20299;-62
2023/01/28 00:14:46;;;;;;;3.30;3.00;;;;;;;;;;5080105;28;20222;-62
2023/01/28 00:17:14;;;;;;;3.75;3.45;;;;;;;;;;5079871;28;20205;-62
2023/01/28 00:19:42;;;;;;;3.78;3.47;;;;;;;;;;5079579;28;20508;-62
2023/01/28 00:22:10;;;;;;;3.80;3.50;;;;;;;;;;5078537;28;20224;-62
2023/01/28 00:24:40;;;;;;;3.92;3.60;;;;;;;;;;5078944;28;20299;-62
2023/01/28 00:27:08;;;;;;;4.03;3.65;;;;;;;;;;5078417;28;20204;-61
2023/01/28 00:29:35;;;;;;;4.22;3.88;;;;;;;;;;5078796;28;20292;-62
2023/01/28 00:32:03;;;;;;;3.60;3.30;;;;;;;;;;5078781;28;20537;-62
2023/01/28 00:34:31;;;;;;;3.72;3.42;;;;;;;;;;5078990;28;20205;-62
2023/01/28 00:36:58;;;;;;;5.50;3.72;;;;;;;;;;5078512;28;20226;-62
2023/01/28 00:39:27;;;;;;;4.10;3.70;;;;;;;;;;5078751;28;20247;-62
2023/01/28 00:41:56;;;;;;;4.47;3.60;;;;;;;;;;5078768;28;20603;-63
2023/01/28 00:44:24;;;;;;;3.90;3.60;;;;;;;;;;5078972;28;20541;-62
2023/01/28 00:46:52;;;;;;;4.07;3.70;;;;;;;;;;5078671;28;20302;-62
2023/01/28 00:49:19;;;;;;;4.00;3.70;;;;;;;;;;5078676;28;20207;-62
2023/01/28 00:51:48;;;;;;;3.95;3.65;;;;;;;;;;5078723;28;20204;-62
2023/01/28 00:54:15;;;;;;;4.03;3.72;;;;;;;;;;5078764;28;20549;-62
2023/01/28 00:56:43;;;;;;;4.22;3.90;;;;;;;;;;5078579;28;20265;-62
2023/01/28 00:59:12;;;;;;;4.05;3.65;;;;;;;;;;5078978;28;20205;-62
2023/01/28 01:01:40;;;;;;;4.03;3.72;;;;;;;;;;5078775;28;20251;-62
2023/01/28 01:04:08;;;;;;;4.45;4.05;;;;;;;;;;5079081;28;20548;-63
2023/01/28 01:06:37;;;;;;;4.03;3.65;;;;;;;;;;5078424;28;20204;-62
2023/01/28 01:09:06;;;;;;;4.15;3.75;;;;;;;;;;5078729;28;20204;-62
2023/01/28 01:11:34;;;;;;;4.13;3.72;;;;;;;;;;5078435;28;20500;-62
2023/01/28 01:14:04;;;;;;;4.60;4.20;;;;;;;;;;5078384;28;20548;-62
2023/01/28 01:16:34;;;;;;;4.63;4.22;;;;;;;;;;5077467;28;20290;-62
2023/01/28 01:19:03;;;;;;;3.88;3.58;;;;;;;;;;5078278;28;20206;-62
2023/01/28 01:21:31;;;;;;;4.22;3.83;;;;;;;;;;5078296;28;20204;-62
2023/01/28 01:23:59;;;;;;;4.28;3.90;;;;;;;;;;5077641;28;20230;-62
2023/01/28 01:26:27;;;;;;;4.22;3.83;;;;;;;;;;5077830;28;20287;-62
2023/01/28 01:28:55;;;;;;;4.40;4.00;;;;;;;;;;5078003;28;20204;-62
2023/01/28 01:31:23;;;;;;;4.20;3.80;;;;;;;;;;5078304;28;20286;-62
2023/01/28 01:33:53;;;;;;;4.55;4.13;;;;;;;;;;5077583;28;20197;-62
2023/01/28 01:36:20;;;;;;;4.32;3.92;;;;;;;;;;5078224;28;20509;-62
2023/01/28 01:38:48;;;;;;;4.10;3.80;;;;;;;;;;5077945;28;20540;-62
2023/01/28 01:41:25;;;;;;;4.00;3.67;;;;;;;;;;5077920;28;20310;-62
2023/01/28 01:43:53;;;;;;;4.22;3.92;;;;;;;;;;5077992;28;20346;-62
2023/01/28 01:46:23;;;;;;;4.38;3.95;;;;;;;;;;5077365;28;20223;-62
2023/01/28 01:48:52;;;;;;;4.25;3.85;;;;;;;;;;5077419;28;20600;-62
2023/01/28 01:51:22;;;;;;;3.85;3.50;;;;;;;;;;5077547;28;20581;-62
2023/01/28 01:53:53;;;;;;;4.35;3.95;;;;;;;;;;5077945;28;20276;-62
2023/01/28 01:56:22;;;;;;;4.00;3.70;;;;;;;;;;5077940;28;20512;-62
2023/01/28 01:58:51;;;;;;;4.07;3.67;;;;;;;;;;5077358;28;20223;-62
2023/01/28 02:01:20;;;;;;;4.00;3.70;;;;;;;;;;5077585;28;20266;-62
2023/01/28 02:03:51;;;;;;;4.03;3.65;;;;;;;;;;5076870;28;20231;-62
2023/01/28 02:06:21;;;;;;;4.40;4.00;;;;;;;;;;5077342;28;20254;-62
2023/01/28 02:08:48;;;;;;;4.63;4.22;;;;;;;;;;5076797;28;20251;-62
2023/01/28 02:11:18;;;;;;;4.47;3.90;;;;;;;;;;5077236;28;20205;-62
2023/01/28 02:13:48;;;;;;;3.92;3.63;;;;;;;;;;5077206;28;20235;-62
2023/01/28 02:16:16;;;;;;;4.47;4.05;;;;;;;;;;5077882;28;20476;-62
2023/01/28 02:18:43;;;;;;;3.80;3.45;;;;;;;;;;5077272;28;20204;-62
2023/01/28 02:21:32;;;;;;;4.20;3.80;;;;;;;;;;5077193;28;20208;-62
2023/01/28 02:24:14;;;;;;;3.92;3.53;;;;;;;;;;5069704;28;20239;-62
2023/01/28 02:26:48;;;;;;;4.05;3.65;;;;;;;;;;5077326;28;20204;-62
2023/01/28 02:29:19;;;;;;;4.35;3.95;;;;;;;;;;5077340;28;20269;-62
2023/01/28 02:31:52;;;;;;;4.30;3.90;;;;;;;;;;5077145;28;20212;-62
2023/01/28 02:34:23;;;;;;;4.10;3.70;;;;;;;;;;5077271;28;20295;-61
2023/01/28 02:36:53;;;;;;;3.47;3.17;;;;;;;;;;5077305;28;20580;-61
2023/01/28 02:39:21;;;;;;;4.07;3.78;;;;;;;;;;5076868;28;20243;-61
2023/01/28 02:41:51;;;;;;;3.70;3.40;;;;;;;;;;5077099;28;20278;-61
2023/01/28 02:44:20;;;;;;;3.80;3.50;;;;;;;;;;5076675;28;20236;-62
2023/01/28 02:49:37;;;;;;;3.90;3.60;;;;;;;;;;5076925;28;20233;-62
2023/01/28 02:52:19;;;;;;;3.55;3.25;;;;;;;;;;5076762;28;20247;-62
2023/01/28 02:54:50;;;;;;;3.55;3.25;;;;;;;;;;5076896;28;20204;-62
2023/01/28 02:57:22;;;;;;;3.47;3.17;;;;;;;;;;5077184;28;20200;-62
2023/01/28 02:59:58;;;;;;;3.70;3.40;;;;;;;;;;5076975;28;20659;-62
2023/01/28 03:02:29;;;;;;;3.60;3.30;;;;;;;;;;5076916;28;20247;-62
2023/01/28 03:05:00;;;;;;;3.10;2.88;;;;;;;;;;5077236;28;20268;-62
2023/01/28 03:07:28;;;;;;;3.35;3.05;;;;;;;;;;5077222;28;20211;-61
2023/01/28 03:09:57;;;;;;;3.53;3.22;;;;;;;;;;5077122;28;20565;-61
2023/01/28 03:37:33;;;;;;;2.88;2.53;;;;;;;;;;5076294;28;20257;-61
2023/01/28 03:40:05;;;;;;;2.70;2.50;;;;;;;;;;5076386;28;20266;-61
2023/01/28 03:42:33;;;;;;;3.13;2.83;;;;;;;;;;5079498;28;20304;-61
2023/01/28 03:45:02;;;;;;;2.35;2.15;;;;;;;;;;5080048;28;20573;-62
2023/01/28 03:47:32;;;;;;;2.67;2.47;;;;;;;;;;5080096;28;20212;-61
2023/01/28 03:50:00;;;;;;;2.70;2.50;;;;;;;;;;5080430;28;20232;-62
2023/01/28 03:52:30;;;;;;;2.63;2.42;;;;;;;;;;5079928;28;20235;-62
2023/01/28 03:54:59;;;;;;;2.60;2.40;;;;;;;;;;5079514;28;20261;-61
2023/01/28 03:57:30;;;;;;;2.63;2.30;;;;;;;;;;5079851;28;20250;-61
2023/01/28 03:59:57;;;;;;;2.40;2.20;;;;;;;;;;5079831;28;20553;-62
2023/01/28 04:02:26;;;;;;;2.88;2.67;;;;;;;;;;5079124;28;20295;-62
2023/01/28 04:04:57;;;;;;;2.92;2.60;;;;;;;;;;5079283;28;20228;-62
2023/01/28 04:07:25;;;;;;;2.78;2.58;;;;;;;;;;5079746;28;20212;-61
2023/01/28 04:09:53;;;;;;;2.22;2.08;;;;;;;;;;5079898;28;20239;-62
2023/01/28 04:12:22;;;;;;;2.55;2.35;;;;;;;;;;5079565;28;20259;-61
2023/01/28 04:14:50;;;;;;;2.30;2.10;;;;;;;;;;5079944;28;20543;-61
2023/01/28 04:17:18;;;;;;;2.40;2.20;;;;;;;;;;5079996;28;20239;-62
2023/01/28 04:19:46;;;;;;;2.25;2.05;;;;;;;;;;5079565;28;20585;-62
2023/01/28 04:22:15;;;;;;;2.45;2.25;;;;;;;;;;5062831;28;20247;-62
2023/01/28 04:24:43;;;;;;;2.50;2.30;;;;;;;;;;5079099;28;20271;-62
2023/01/28 04:27:10;;;;;;;2.17;2.00;;;;;;;;;;5079709;28;20270;-62
2023/01/28 04:29:38;;;;;;;2.30;2.10;;;;;;;;;;5079197;28;20204;-62
2023/01/28 04:32:06;;;;;;;2.13;1.92;;;;;;;;;;5079554;28;20269;-61
2023/01/28 04:34:34;;;;;;;2.10;2.00;;;;;;;;;;5079403;28;20212;-61
2023/01/28 04:37:02;;;;;;;2.13;2.00;;;;;;;;;;5079378;28;20216;-62
2023/01/28 04:39:31;;;;;;;2.08;1.98;;;;;;;;;;5079281;28;20235;-63
2023/01/28 04:41:59;;;;;;;2.20;2.00;;;;;;;;;;5078683;28;20299;-62
2023/01/28 04:44:27;;;;;;;2.05;1.90;;;;;;;;;;5078916;28;20231;-62
2023/01/28 04:46:55;;;;;;;2.20;2.00;;;;;;;;;;5079026;28;20647;-62
2023/01/28 04:49:22;;;;;;;1.83;1.73;;;;;;;;;;5078803;28;20204;-62
2023/01/28 04:51:50;;;;;;;2.20;2.00;;;;;;;;;;5078742;28;20290;-62
2023/01/28 04:54:18;;;;;;;2.00;1.80;;;;;;;;;;5078080;28;20208;-62
2023/01/28 04:56:47;;;;;;;1.90;1.80;;;;;;;;;;5078778;28;20204;-62
2023/01/28 04:59:15;;;;;;;2.17;1.98;;;;;;;;;;5077974;28;20203;-61
2023/01/28 05:01:42;;;;;;;1.80;1.70;;;;;;;;;;5078600;28;20208;-62
2023/01/28 05:04:10;;;;;;;1.95;1.80;;;;;;;;;;5078207;28;20230;-62
2023/01/28 05:06:37;;;;;;;2.25;2.05;;;;;;;;;;5078691;28;20214;-62
2023/01/28 05:09:05;;;;;;;1.70;1.60;;;;;;;;;;5078760;28;20204;-62
2023/01/28 05:11:33;;;;;;;2.20;2.00;;;;;;;;;;5078253;28;20626;-62
2023/01/28 05:14:02;;;;;;;1.85;1.70;;;;;;;;;;5078441;28;20201;-62
2023/01/28 05:16:30;;;;;;;1.85;1.70;;;;;;;;;;5078526;28;20204;-62
2023/01/28 05:18:58;;;;;;;1.73;1.63;;;;;;;;;;5078074;28;20211;-63
2023/01/28 05:21:25;;;;;;;1.80;1.70;;;;;;;;;;5077839;28;20215;-62
2023/01/28 05:23:52;;;;;;;1.98;1.85;;;;;;;;;;5077789;28;20228;-62
2023/01/28 05:26:20;;;;;;;1.92;1.75;;;;;;;;;;5078284;28;20207;-62
2023/01/28 05:28:47;;;;;;;1.92;1.83;;;;;;;;;;5078086;28;20212;-62
2023/01/28 05:31:16;;;;;;;2.15;1.75;;;;;;;;;;5078313;28;20227;-62
2023/01/28 05:33:44;;;;;;;1.98;1.83;;;;;;;;;;5078364;28;20585;-61
2023/01/28 05:36:11;;;;;;;1.98;1.88;;;;;;;;;;5078024;28;20265;-62
2023/01/28 05:38:39;;;;;;;1.52;1.42;;;;;;;;;;5078717;28;20201;-62
2023/01/28 05:41:06;;;;;;;1.70;1.60;;;;;;;;;;5077757;28;20205;-62
2023/01/28 05:43:33;;;;;;;1.45;1.35;;;;;;;;;;5077890;28;20243;-62
2023/01/28 05:46:01;;;;;;;1.70;1.60;;;;;;;;;;5077563;28;20239;-62
2023/01/28 05:48:29;;;;;;;1.52;1.42;;;;;;;;;;5077680;28;20204;-62
2023/01/28 05:50:57;;;;;;;1.88;1.77;;;;;;;;;;5078245;28;20214;-62
2023/01/28 05:53:24;;;;;;;1.63;1.52;;;;;;;;;;5077589;28;20290;-62
2023/01/28 05:55:53;;;;;;;1.65;1.55;;;;;;;;;;5077138;28;20230;-62
2023/01/28 05:58:21;;;;;;;1.70;1.60;;;;;;;;;;5077591;28;20214;-62
2023/01/28 06:00:48;;;;;;;1.75;1.65;;;;;;;;;;5077869;28;20466;-62
2023/01/28 06:03:15;;;;;;;1.63;1.52;;;;;;;;;;5077155;28;20604;-62
2023/01/28 06:05:44;;;;;;;1.63;1.52;;;;;;;;;;5077108;28;20204;-62
2023/01/28 06:08:12;;;;;;;1.67;1.58;;;;;;;;;;5077353;28;20204;-62
2023/01/28 06:10:39;;;;;;;1.70;1.60;;;;;;;;;;5077179;28;20220;-61
2023/01/28 06:13:07;;;;;;;2.13;1.50;;;;;;;;;;5077019;28;20208;-61
2023/01/28 06:15:34;;;;;;;1.77;1.67;;;;;;;;;;5077033;28;20200;-62
2023/01/28 06:18:01;;;;;;;1.40;1.30;;;;;;;;;;5077572;28;20204;-62
2023/01/28 06:20:29;;;;;;;1.70;1.60;;;;;;;;;;5077320;28;20201;-62
2023/01/28 06:22:58;;;;;;;1.60;1.50;;;;;;;;;;5077116;28;20205;-62
2023/01/28 06:25:25;;;;;;;1.48;1.38;;;;;;;;;;5076973;28;20224;-62
2023/01/28 06:27:53;;;;;;;2.00;1.65;;;;;;;;;;5077454;28;20210;-62
2023/01/28 06:30:20;;;;;;;1.70;1.60;;;;;;;;;;5077285;28;20474;-62
2023/01/28 06:32:48;;;;;;;1.70;1.60;;;;;;;;;;5077344;28;20715;-62
2023/01/28 06:35:15;;;;;;;1.80;1.70;;;;;;;;;;5076132;28;20487;-62
2023/01/28 06:37:44;;;;;;;1.95;1.77;;;;;;;;;;5077144;28;20204;-62
2023/01/28 06:40:13;;;;;;;1.58;1.48;;;;;;;;;;5076458;28;20212;-62
2023/01/28 06:42:41;;;;;;;1.63;1.52;;;;;;;;;;5076838;28;20238;-62
2023/01/28 06:45:08;;;;;;;1.40;1.30;;;;;;;;;;5077115;28;20652;-62
2023/01/28 06:47:36;;;;;;;1.60;1.50;;;;;;;;;;5076393;28;20468;-62
2023/01/28 06:50:04;;;;;;;1.35;1.25;;;;;;;;;;5077442;28;20291;-62
2023/01/28 06:52:31;;;;;;;1.50;1.35;;;;;;;;;;5076556;28;20232;-62
2023/01/28 06:54:58;;;;;;;1.35;1.25;;;;;;;;;;5076483;28;20207;-62
2023/01/28 06:57:27;;;;;;;1.40;1.30;;;;;;;;;;5076792;28;20204;-62
2023/01/28 06:59:55;;;;;;;1.50;1.40;;;;;;;;;;5077009;28;20205;-62
2023/01/28 07:02:22;;;;;;;1.40;1.30;;;;;;;;;;5076552;28;20215;-63
2023/01/28 07:04:50;;;;;;;1.35;1.25;;;;;;;;;;5075964;28;20239;-63
2023/01/28 07:07:17;;;;;;;1.48;1.38;;;;;;;;;;5075880;28;20265;-62
2023/01/28 07:09:44;;;;;;;1.40;1.27;;;;;;;;;;5076799;28;20215;-62
2023/01/28 07:12:12;;;;;;;1.60;1.30;;;;;;;;;;5075557;28;20225;-62
2023/01/28 07:14:41;;;;;;;1.38;1.20;;;;;;;;;;5076490;28;20202;-63
2023/01/28 07:17:08;;;;;;;1.60;1.50;;;;;;;;;;5078588;28;20600;-62
2023/01/28 07:19:35;;;;;;;1.40;1.30;;;;;;;;;;5080311;28;20468;-62
2023/01/28 07:22:03;;;;;;;2.58;1.50;;;;;;;;;;5079909;28;20475;-62
2023/01/28 07:24:30;;;;;;;2.15;1.60;;;;;;;;;;5079994;28;20261;-62
2023/01/28 07:26:58;;;;;;;2.33;1.55;;;;;;;;;;5079562;28;20204;-62
2023/01/28 07:29:25;;;;;;;1.95;1.33;;;;;;;;;;5080240;28;20479;-62
2023/01/28 07:31:54;;;;;;;1.58;1.42;;;;;;;;;;5079766;28;20204;-62
2023/01/28 07:34:21;;;;;;;2.28;1.40;;;;;;;;;;5080327;28;20210;-62
2023/01/28 07:36:49;;;;;;;1.55;1.35;;;;;;;;;;5080260;28;20204;-62
2023/01/28 07:39:16;;;;;;;1.58;1.48;;;;;;;;;;5079216;28;20204;-62
2023/01/28 07:41:44;;;;;;;1.50;1.40;;;;;;;;;;5078746;28;20215;-62
2023/01/28 07:44:11;;;;;;;1.80;1.30;;;;;;;;;;5079173;28;20228;-62
2023/01/28 07:46:39;;;;;;;1.45;1.35;;;;;;;;;;5079564;28;20205;-62
2023/01/28 07:49:07;;;;;;;1.40;1.30;;;;;;;;;;5079163;28;20603;-62
2023/01/28 07:51:35;;;;;;;2.10;1.30;;;;;;;;;;5078161;28;20219;-62
2023/01/28 07:54:02;;;;;;;1.88;1.40;;;;;;;;;;5079449;28;20196;-62
2023/01/28 07:56:31;;;;;;;1.70;1.52;;;;;;;;;;5078751;28;20208;-62
2023/01/28 07:58:58;;;;;;;2.08;1.60;;;;;;;;;;5078572;28;20201;-62
2023/01/28 08:01:26;;;;;;;1.55;1.45;;;;;;;;;;5078829;28;20205;-62
2023/01/28 08:03:54;;;;;;;1.50;1.40;;;;;;;;;;5078960;28;20585;-62
2023/01/28 08:06:23;;;;;;;1.70;1.42;;;;;;;;;;5079179;28;20204;-62
2023/01/28 08:08:50;;;;;;;1.88;1.70;;;;;;;;;;5078724;28;20210;-62
2023/01/28 08:11:18;;;;;;;1.70;1.60;;;;;;;;;;5078071;28;20203;-62
2023/01/28 08:13:45;;;;;;;1.60;1.50;;;;;;;;;;5078595;28;20200;-62
2023/01/28 08:16:13;;;;;;;2.28;1.67;;;;;;;;;;5078266;28;20200;-62
2023/01/28 08:18:40;;;;;;;5.32;4.38;;;;;;;;;;5078827;28;20226;-62
2023/01/28 08:21:07;;;;;;;7.00;6.30;;;;;;;;;;5078111;28;20208;-62
2023/01/28 08:23:37;;;;;;;8.63;7.82;;;;;;;;;;5078324;28;20208;-62
2023/01/28 08:26:04;;;;;;;7.68;6.97;;;;;;;;;;5078117;28;20239;-62
2023/01/28 08:28:32;;;;;;;7.97;7.18;;;;;;;;;;5077101;28;20209;-62
2023/01/28 08:31:00;;;;;;;7.72;6.93;;;;;;;;;;5078067;28;20200;-62
2023/01/28 08:33:28;;;;;;;7.55;6.80;;;;;;;;;;5078046;28;20208;-62
2023/01/28 08:35:55;;;;;;;8.52;6.90;;;;;;;;;;5078320;28;20614;-62
2023/01/28 08:38:23;;;;;;;8.18;6.68;;;;;;;;;;5078144;28;20290;-62
2023/01/28 08:40:54;;;;;;;7.35;6.65;;;;;;;;;;5078257;28;20203;-62
2023/01/28 08:43:21;;;;;;;7.25;6.55;;;;;;;;;;5077726;28;20215;-62
2023/01/28 08:45:49;;;;;;;7.53;6.70;;;;;;;;;;5077443;28;20650;-62
2023/01/28 08:48:17;;;;;;;8.60;6.30;;;;;;;;;;5077932;28;20576;-62
2023/01/28 08:50:45;;;;;;;7.05;6.35;;;;;;;;;;5078248;28;20204;-62
2023/01/28 08:53:14;;;;;;;7.85;6.60;;;;;;;;;;5077101;28;20654;-62
2023/01/28 08:55:41;;;;;;;8.05;6.28;;;;;;;;;;5077279;28;20211;-62
2023/01/28 08:58:12;;;;;;;6.50;5.85;;;;;;;;;;5077556;28;20207;-62
2023/01/28 09:00:39;;;;;;;6.70;6.00;;;;;;;;;;5077553;28;20204;-62
2023/01/28 09:03:07;;;;;;;7.45;6.18;;;;;;;;;;5077613;28;20270;-62
2023/01/28 09:05:36;;;;;;;6.97;6.00;;;;;;;;;;5077116;28;20654;-61
2023/01/28 09:08:03;;;;;;;6.90;6.20;;;;;;;;;;5077305;28;20208;-61
2023/01/28 09:10:31;;;;;;;6.35;5.75;;;;;;;;;;5076546;28;20602;-61
2023/01/28 09:12:58;;;;;;;6.95;5.45;;;;;;;;;;5077654;28;20484;-61
2023/01/28 09:15:27;;;;;;;7.15;6.25;;;;;;;;;;5077434;28;20200;-61
2023/01/28 09:17:58;;;;;;;6.10;5.50;;;;;;;;;;5077180;28;20728;-61
2023/01/28 09:20:25;;;;;;;6.07;5.18;;;;;;;;;;5076723;28;20208;-61
2023/01/28 09:22:53;;;;;;;6.53;5.88;;;;;;;;;;5076765;28;20261;-62
2023/01/28 09:25:20;;;;;;;6.10;5.50;;;;;;;;;;5077613;28;20228;-62
2023/01/28 09:27:48;;;;;;;6.43;5.20;;;;;;;;;;5076465;28;20865;-62
2023/01/28 09:30:15;;;;;;;5.40;4.90;;;;;;;;;;5076950;28;20215;-62
2023/01/28 09:32:44;;;;;;;5.68;5.07;;;;;;;;;;5076567;28;20211;-62
2023/01/28 09:35:14;;;;;;;5.45;4.95;;;;;;;;;;5075800;28;20203;-62
2023/01/28 09:37:41;;;;;;;5.28;4.78;;;;;;;;;;5076876;28;20232;-62
2023/01/28 09:40:12;;;;;;;5.65;5.05;;;;;;;;;;5076503;28;20227;-62
2023/01/28 09:42:57;;;;;;;5.40;4.90;;;;;;;;;;5076208;28;20228;-63
2023/01/28 09:45:29;;;;;;;5.05;4.55;;;;;;;;;;5076384;28;20224;-62
2023/01/28 09:47:59;;;;;;;5.63;4.53;;;;;;;;;;5075546;28;20204;-62
2023/01/28 09:50:29;;;;;;;6.82;4.78;;;;;;;;;;5075042;28;20204;-62
2023/01/28 09:52:58;;;;;;;4.85;4.35;;;;;;;;;;5075297;28;20254;-62
2023/01/28 09:55:30;;;;;;;74.60;66.97;;;;;;;;;;5075716;28;20207;-62
2023/01/28 09:57:58;;;;;;;42.55;38.33;;;;;;;;;;5075249;28;20204;-62
2023/01/28 10:00:29;;;;;;;41.17;37.13;;;;;;;;;;5075487;28;20577;-63
2023/01/28 10:03:05;;;;;;;39.92;35.83;;;;;;;;;;5076076;28;20204;-62
2023/01/28 10:05:36;;;;;;;36.92;33.42;;;;;;;;;;5075953;28;20228;-62
2023/01/28 10:08:12;;;;;;;35.70;32.10;;;;;;;;;;5076108;28;20197;-61
2023/01/28 10:10:43;;;;;;;35.20;31.75;;;;;;;;;;5076208;28;20491;-61
2023/01/28 10:13:21;;;;;;;34.15;30.75;;;;;;;;;;5075611;28;20212;-61
2023/01/28 10:15:52;;;;;;;33.13;29.95;;;;;;;;;;5074525;28;20646;-61
2023/01/28 10:18:27;;;;;;;31.70;28.67;;;;;;;;;;5075042;28;20204;-61
2023/01/28 10:20:56;;;;;;;32.67;29.48;;;;;;;;;;5075846;28;20204;-61
2023/01/28 10:23:26;;;;;;;38.88;35.13;;;;;;;;;;5075907;28;20200;-61
2023/01/28 10:25:54;;;;;;;35.20;31.80;;;;;;;;;;5075244;28;20221;-61
2023/01/28 10:28:23;;;;;;;33.85;30.55;;;;;;;;;;5075688;28;20207;-61
2023/01/28 10:30:51;;;;;;;32.63;29.63;;;;;;;;;;5075063;28;20304;-61
2023/01/28 10:33:21;;;;;;;31.88;28.90;;;;;;;;;;5075325;28;20196;-61
2023/01/28 10:35:50;;;;;;;30.90;27.88;;;;;;;;;;5074669;28;20207;-61
2023/01/28 10:38:20;;;;;;;29.45;26.55;;;;;;;;;;5075191;28;20202;-61
2023/01/28 10:40:48;;;;;;;29.00;26.20;;;;;;;;;;5075728;28;20196;-61
2023/01/28 10:43:16;;;;;;;27.45;24.67;;;;;;;;;;5075941;28;20200;-61
2023/01/28 10:45:49;;;;;;;25.65;23.15;;;;;;;;;;5075437;28;20232;-61
2023/01/28 10:48:20;;;;;;;24.02;21.83;;;;;;;;;;5075714;28;20222;-61
2023/01/28 10:50:52;;;;;;;23.08;20.98;;;;;;;;;;5074912;28;20215;-61
2023/01/28 10:53:20;;;;;;;22.45;20.35;;;;;;;;;;5074574;28;20236;-61
2023/01/28 10:55:50;;;;;;;22.25;20.23;;;;;;;;;;5075723;28;20197;-62
2023/01/28 10:58:19;;;;;;;20.80;18.73;;;;;;;;;;5074988;28;20196;-61
2023/01/28 11:00:46;;;;;;;19.63;17.95;;;;;;;;;;5074887;28;20200;-61
2023/01/28 11:03:18;;;;;;;19.35;17.65;;;;;;;;;;5074996;28;20711;-62
2023/01/28 11:05:53;;;;;;;18.73;16.95;;;;;;;;;;5074930;28;20235;-61
2023/01/28 11:08:21;;;;;;;17.08;15.57;;;;;;;;;;5074591;28;20211;-62
2023/01/28 11:10:48;;;;;;;17.23;15.80;;;;;;;;;;5075977;28;20208;-61
2023/01/28 11:13:17;;;;;;;16.77;15.27;;;;;;;;;;5075067;28;20204;-61
2023/01/28 11:15:48;;;;;;;15.48;14.07;;;;;;;;;;5074794;28;20208;-61
2023/01/28 11:18:18;;;;;;;14.60;13.30;;;;;;;;;;5074164;28;20278;-61
2023/01/28 11:20:51;;;;;;;14.43;13.13;;;;;;;;;;5074652;28;20352;-61
2023/01/28 11:23:22;;;;;;;14.00;12.80;;;;;;;;;;5074445;28;20299;-61
2023/01/28 11:25:50;;;;;;;12.60;11.48;;;;;;;;;;5073774;28;20285;-61
2023/01/28 11:28:18;;;;;;;12.85;11.65;;;;;;;;;;5074832;28;20214;-61
2023/01/28 11:30:50;;;;;;;12.07;10.98;;;;;;;;;;5075250;28;20499;-61
2023/01/28 11:33:19;;;;;;;11.57;10.57;;;;;;;;;;5074113;28;20208;-61
2023/01/28 11:35:53;;;;;;;10.93;9.85;;;;;;;;;;5073741;28;20218;-62
2023/01/28 11:38:23;;;;;;;10.07;9.27;;;;;;;;;;5074011;28;20199;-61
2023/01/28 11:40:51;;;;;;;10.00;9.10;;;;;;;;;;5074515;28;20278;-61
2023/01/28 11:43:19;;;;;;;9.45;8.65;;;;;;;;;;5075018;28;20215;-61
2023/01/28 11:45:50;;;;;;;9.45;8.65;;;;;;;;;;5074052;28;20659;-61
2023/01/28 11:48:26;;;;;;;9.02;8.20;;;;;;;;;;5074702;28;20208;-61
2023/01/28 11:50:56;;;;;;;8.95;8.20;;;;;;;;;;5074590;28;20204;-61
2023/01/28 11:53:35;;;;;;;8.65;7.85;;;;;;;;;;5074208;28;20256;-61
2023/01/28 11:56:09;;;;;;;8.18;7.47;;;;;;;;;;5074172;28;20196;-61
2023/01/28 11:58:44;;;;;;;7.97;7.30;;;;;;;;;;5075012;28;20203;-61
2023/01/28 12:01:15;;;;;;;8.02;7.43;;;;;;;;;;5074540;28;20302;-61
2023/01/28 12:03:47;;;;;;;7.30;6.70;;;;;;;;;;5076018;28;20200;-61
2023/01/28 12:06:22;;;;;;;6.80;6.20;;;;;;;;;;5076891;28;20632;-61
2023/01/28 12:08:55;;;;;;;7.03;6.43;;;;;;;;;;5077860;28;20204;-61
2023/01/28 12:14:14;;;;;;;6.20;5.60;;;;;;;;;;5077003;28;20267;-61
2023/01/28 12:16:46;;;;;;;5.80;5.30;;;;;;;;;;5077445;28;20200;-61
2023/01/28 12:19:30;;;;;;;5.70;5.20;;;;;;;;;;5061495;28;20593;-61
2023/01/28 12:22:04;;;;;;;5.97;5.47;;;;;;;;;;5075481;28;20662;-61
2023/01/28 12:24:42;;;;;;;5.38;4.95;;;;;;;;;;5077247;28;20254;-61
2023/01/28 12:27:15;;;;;;;5.63;5.13;;;;;;;;;;5077184;28;20224;-62
2023/01/28 12:29:48;;;;;;;5.45;4.95;;;;;;;;;;5077466;28;20204;-61
2023/01/28 12:32:38;;;;;;;4.82;4.43;;;;;;;;;;5077320;28;20270;-61
2023/01/28 12:35:23;;;;;;;5.10;4.70;;;;;;;;;;5077684;28;20498;-62
2023/01/28 12:37:58;;;;;;;4.50;4.10;;;;;;;;;;5076018;28;20208;-62
2023/01/28 12:40:36;;;;;;;4.47;4.07;;;;;;;;;;5076429;28;20200;-61
2023/01/28 12:43:06;;;;;;;4.00;3.70;;;;;;;;;;5076995;28;20196;-61
2023/01/28 12:45:39;;;;;;;4.55;4.15;;;;;;;;;;5077063;28;20214;-61
2023/01/28 12:48:10;;;;;;;4.15;3.83;;;;;;;;;;5076803;28;20307;-61
2023/01/28 12:50:40;;;;;;;4.20;3.90;;;;;;;;;;5077283;28;20204;-61
2023/01/28 12:53:15;;;;;;;4.80;4.38;;;;;;;;;;5076793;28;20242;-61
2023/01/28 12:55:46;;;;;;;3.80;3.50;;;;;;;;;;5076674;28;20765;-61
2023/01/28 12:58:17;;;;;;;3.88;3.58;;;;;;;;;;5060266;28;20207;-61
2023/01/28 13:00:47;;;;;;;3.80;3.50;;;;;;;;;;5075881;28;20236;-61
2023/01/28 13:03:18;;;;;;;3.80;3.50;;;;;;;;;;5076880;28;20722;-61
2023/01/28 13:05:49;;;;;;;3.55;3.25;;;;;;;;;;5077217;28;20263;-61
2023/01/28 13:08:20;;;;;;;3.63;3.33;;;;;;;;;;5075692;28;20204;-61
2023/01/28 13:10:49;;;;;;;4.05;3.65;;;;;;;;;;5076671;28;20208;-61
2023/01/28 13:13:18;;;;;;;3.72;2.92;;;;;;;;;;5076435;28;20283;-61
2023/01/28 13:15:46;;;;;;;3.45;3.15;;;;;;;;;;5074942;28;20212;-61
2023/01/28 13:18:28;;;;;;;3.75;3.45;;;;;;;;;;5059449;28;20204;-61
2023/01/28 13:20:55;;;;;;;3.35;2.85;;;;;;;;;;5076702;28;20265;-61
2023/01/28 13:23:25;;;;;;;3.25;2.95;;;;;;;;;;5076978;28;20208;-62
2023/01/28 13:25:55;;;;;;;3.55;3.25;;;;;;;;;;5075683;28;20238;-61
2023/01/28 13:28:26;;;;;;;3.00;2.75;;;;;;;;;;5076001;28;20196;-61
2023/01/28 13:31:01;;;;;;;3.35;2.85;;;;;;;;;;5076169;28;20196;-61
2023/01/28 13:33:30;;;;;;;3.25;2.95;;;;;;;;;;5076278;28;20199;-61
2023/01/28 13:35:58;;;;;;;3.10;2.80;;;;;;;;;;5075773;28;20204;-61
2023/01/28 13:38:26;;;;;;;3.67;2.80;;;;;;;;;;5075185;28;20269;-61
2023/01/28 13:40:56;;;;;;;2.70;2.50;;;;;;;;;;5075080;28;20197;-61
2023/01/28 13:43:28;;;;;;;2.85;2.40;;;;;;;;;;5075952;28;20204;-61
2023/01/28 13:45:57;;;;;;;3.78;2.63;;;;;;;;;;5076135;28;20468;-61
2023/01/28 13:48:28;;;;;;;3.08;2.47;;;;;;;;;;5075854;28;20204;-62
2023/01/28 13:50:56;;;;;;;2.70;2.50;;;;;;;;;;5074575;28;20211;-61
2023/01/28 13:53:37;;;;;;;2.80;2.50;;;;;;;;;;5074965;28;20258;-61
2023/01/28 13:56:08;;;;;;;2.63;2.42;;;;;;;;;;5075954;28;20206;-61
2023/01/28 13:58:50;;;;;;;2.60;2.40;;;;;;;;;;5074742;28;20230;-61
2023/01/28 14:01:29;;;;;;;2.50;2.30;;;;;;;;;;5071056;28;20203;-61
2023/01/28 14:04:20;;;;;;;2.40;2.25;;;;;;;;;;5075311;28;20204;-61
2023/01/28 14:07:00;;;;;;;2.83;2.63;;;;;;;;;;5075215;28;20224;-61
2023/01/28 14:09:49;;;;;;;2.20;2.00;;;;;;;;;;5076027;28;20200;-61
2023/01/28 14:12:38;;;;;;;2.30;2.10;;;;;;;;;;5074598;28;20330;-61
2023/01/28 14:15:20;;;;;;;4.18;2.72;;;;;;;;;;5074543;28;20207;-61
2023/01/28 14:17:49;;;;;;;14.65;13.18;;;;;;;;;;5075257;28;20222;-61
2023/01/28 14:20:19;;;;;;;11.95;10.75;;;;;;;;;;5075217;28;20214;-61
2023/01/28 14:22:47;;;;;;;11.27;10.18;;;;;;;;;;5075117;28;20204;-61
2023/01/28 14:25:16;;;;;;;10.52;9.45;;;;;;;;;;5074365;28;20215;-61
2023/01/28 14:27:45;;;;;;;9.45;8.55;;;;;;;;;;5075008;28;20224;-61
2023/01/28 14:30:16;;;;;;;10.70;8.40;;;;;;;;;;5075211;28;20584;-61
2023/01/28 14:32:47;;;;;;;8.60;7.70;;;;;;;;;;5075362;28;20216;-61
2023/01/28 14:35:19;;;;;;;8.57;7.68;;;;;;;;;;5074380;28;20210;-61
2023/01/28 14:37:46;;;;;;;8.45;7.60;;;;;;;;;;5073973;28;20196;-61
2023/01/28 14:40:15;;;;;;;8.02;7.25;;;;;;;;;;5074839;28;20231;-61
2023/01/28 14:42:44;;;;;;;7.60;6.90;;;;;;;;;;5074216;28;20295;-61
2023/01/28 14:45:20;;;;;;;6.88;6.28;;;;;;;;;;5073958;28;20211;-61
2023/01/28 14:47:58;;;;;;;6.95;6.20;;;;;;;;;;5074263;28;20220;-61
2023/01/28 14:50:31;;;;;;;6.55;5.85;;;;;;;;;;5073995;28;20204;-62
2023/01/28 14:53:18;;;;;;;6.60;6.00;;;;;;;;;;5074089;28;20228;-61
2023/01/28 14:55:49;;;;;;;6.25;5.65;;;;;;;;;;5075177;28;20204;-61
2023/01/28 14:58:18;;;;;;;5.68;5.18;;;;;;;;;;5075265;28;20222;-61
2023/01/28 15:00:54;;;;;;;6.10;5.50;;;;;;;;;;5074863;28;20614;-61
2023/01/28 15:03:23;;;;;;;6.13;5.63;;;;;;;;;;5074253;28;20204;-61
2023/01/28 15:05:50;;;;;;;24.60;22.33;;;;;;;;;;5074226;28;20584;-63
2023/01/28 15:08:21;;;;;;;23.80;21.70;;;;;;;;;;5074540;28;20224;-61
2023/01/28 15:10:49;;;;;;;18.50;16.90;;;;;;;;;;5074987;28;20488;-61
2023/01/28 15:13:22;;;;;;;16.90;15.40;;;;;;;;;;5074356;28;20212;-61
2023/01/28 15:15:50;;;;;;;17.10;15.50;;;;;;;;;;5073588;28;20200;-61
2023/01/28 15:18:18;;;;;;;16.05;14.55;;;;;;;;;;5074413;28;20207;-61
2023/01/28 15:20:48;;;;;;;15.63;14.23;;;;;;;;;;5074278;28;20227;-61
2023/01/28 15:23:16;;;;;;;15.15;13.85;;;;;;;;;;5074699;28;20204;-61
2023/01/28 15:25:44;;;;;;;13.98;12.77;;;;;;;;;;5074851;28;20219;-61